Airfield :
LOGIN :

Register | Disclaimer

   EN    FR    IT 

 










Legend :    VFR   Marginal VFR   IFR   Intensive IFR   Very Intensive IFR
Visi :
Ceiling :
>= 8 km
>= 3000ft
5 to 8 km
1000 to 3000 ft
1500m to 5 km
500 to 1000 ft
800 to 1500m
200 to 500 ft
< 800m
< 200 ft
Symbols :   Thunderstorms  Fog  Heavy snow  Heavy precipitations  Wind > 20 kt
SIGMETs :     Misc.  Thunderstorms  Icing  Turbulence  Mountain Waves  Volcanic Ashes






- Airport Elevation : 425 ft
- IATA code : DTM


EDLW - Dortmund

CURRENT METAR :
  • 180550Z 25004KT 220V280 2100 -DZ OVC001 04/04 Q1004

EXPIRED METARs :
  • 180520Z 23004KT 2000 -DZ BKN001 04/04 Q1004
  • 180450Z 25003KT 210V290 2000 -DZ OVC001 04/04 Q1004
  • 180420Z 26003KT 230V310 1500 BR OVC001 04/04 Q1004
  • 180350Z AUTO 26003KT 220V310 1700 1200 R24/1500U // OVC001/// 04/04 Q1004
  • 180320Z AUTO VRB02KT 1800 1300 R24/1700U // BKN001/// OVC004/// 04/04 Q1004

TAF TAF EDLW
Valid from the 18 at 06:00 until the 19 at 06:00 UTC


180500Z 1806/1906 VRB03KT 4000 BR SCT003 BKN006
TEMPO 1806/1812 1200 -DZRA OVC001
BECMG 1810/1813 22010KT 7000 SCT008 BKN020
TEMPO 1816/1823 2000 RA BKN004



MET'MAP, your aeronautical weather chart ! - Copyright ORBIFLY December 2007 - Disclaimer

ORBIFLY MET'MAP TEAM :

Programming & Development : Alexandra Zaïnal
Concept & Development : Baudouin d'Aumeries
Co-Development & Prog : Marc-Olivier Méhu
Technical & hardware support : Manuel Goepfert

Contact : metmap@orbifly.com




SOURCES & CREDITS :

   NOAA